Vanderbilt, MI

12:07 PM EDT on July 07, 2015 (GMT -0400)
Bows Lake | | Change Station
CLOSE
Current Station
Personal Weather Station
Location: Vanderbilt, MI
Elevation: 1202 ft
Nearby Weather Stations

Elev 1202 ft 45.15 °N, 84.77 °W | Updated 19 seconds ago

Overcast
Overcast
60.4 °F
Feels Like 60.4 °F
N
4.0
Wind Variable Wind from SW
Gusts 7.6 mph

Today
High -- | Low -- °F
--% Chance of Precip.
Yesterday
High -- | Low -- °F
Precip. -- in
5:58 AM 9:27 PM
Waning Gibbous, 63% visible
Pressure 29.93 in
Visibility 10.0 miles
Clouds Overcast 1100 ft
Dew Point 56 °F
Humidity 86%
Rainfall 0.46 in
Snow Depth Not available.
UV 3 out of 12
Pollen .60 out of 12
Air Quality Not available.
Flu Activity Not available.
METAR KGLR 071553Z AUTO 31006KT 10SM OVC011 14/12 A2994 RMK AO2 SLP135 T01390117 TSNO

More Conditions Fewer Conditions

Pressure 29.93 in
Visibility 10.0 miles
Clouds Overcast 1100 ft
Dew Point 56 °F
Humidity 86%
Rainfall 0.46 in
Snow Depth Not available.
UV 3 out of 12
Pollen .60 out of 12
Air Quality Not available.
Flu Activity Not available.
METAR KGLR 071553Z AUTO 31006KT 10SM OVC011 14/12 A2994 RMK AO2 SLP135 T01390117 TSNO

More Conditions Fewer Conditions

Nowcast | as of 12:00 PM EDT on July 7, 2015

At 1 PM...mostly cloudy. Temperature 61. Northwest winds 14 mph. At 3 PM...partly cloudy. Temperature 65. Northwest winds 15 mph. At 5 PM...partly cloudy. Temperature 67. Northwest winds 14 mph. At 7 PM...mostly clear. Temperature 67. Northwest winds 12 mph.

×

10-Day Weather Forecast

×

Almanac

Astronomy

Jul. 07, 2015 Rise Set
Actual Time
Civil Twilight
Nautical Twilight
Astronomical Twilight
Moon
Length of Visible Light
Length of Day
Tomorrow will be .
, % of the Moon is Illuminated

Today's Extremes

State Highs State Lows

Community

WunderPhotos

Upload Photos

1,835,825 photos uploaded!

WunderBlogs® & News

Nearby

Air Quality

  Air Quality AQ Index Pollutant
Not available.

Snow Depth

Station Depth Elevation

Earthquake Activity

City Distance Mag. Time & Date
Minimum magnitude displayed is 2.5.

Coastal Water Temperatures

Place Temperature

Stations

Nearby Weather Stations

Station Location Temp. Windchill Dew Point Humidity Wind Precip. Elev Updated Type